Time;durP1;ratioP1;P1;durP2;ratioP2;P2;SDS_P1;SDS_P2;PMS_P1;PMS_P2;Temp;Humidity;BMP_temperature;BMP_pressure;BME280_temperature;BME280_humidity;BME280_pressure;Samples;Min_cycle;Max_cycle;Signal;HPM_P1;HPM_P2
2022/04/27 00:01:31;;;;;;;22.00;11.10;;;;;;;-144.47;53.63;53444.03;5089248;28;20047;-70
2022/04/27 00:03:56;;;;;;;23.42;10.63;;;;;;;-144.47;53.39;53455.97;5078031;28;20017;-71
2022/04/27 00:06:21;;;;;;;16.88;8.85;;;;;;;-144.47;53.33;53404.31;5058842;28;20095;-71
2022/04/27 00:08:46;;;;;;;16.77;7.72;;;;;;;-144.47;53.94;53459.94;5057388;28;20035;-71
2022/04/27 00:11:12;;;;;;;13.05;6.60;;;;;;;-144.47;53.69;53436.09;5078553;28;20036;-71
2022/04/27 00:13:38;;;;;;;12.30;6.13;;;;;;;-144.47;53.73;53448.00;5080283;28;20028;-69
2022/04/27 00:16:03;;;;;;;12.13;6.93;;;;;;;-144.47;53.75;53392.41;5071595;28;20213;-69
2022/04/27 00:18:28;;;;;;;12.13;6.65;;;;;;;-144.47;53.78;53414.25;5084643;28;20032;-69
2022/04/27 00:20:54;;;;;;;10.48;6.55;;;;;;;-144.47;53.63;53436.09;5074513;28;20041;-68
2022/04/27 00:23:20;;;;;;;13.60;6.65;;;;;;;-144.47;53.37;53404.31;5077625;28;20062;-70
2022/04/27 00:25:46;;;;;;;11.52;6.32;;;;;;;-144.47;53.73;53450.00;5083410;28;20040;-70
2022/04/27 00:28:11;;;;;;;13.80;6.47;;;;;;;-144.47;53.99;53463.91;5084119;28;20111;-68
2022/04/27 00:30:37;;;;;;;15.10;6.60;;;;;;;-144.47;54.30;53400.34;5060421;28;20043;-69
2022/04/27 00:33:02;;;;;;;16.25;6.22;;;;;;;-144.47;54.41;53426.16;5080109;28;20083;-67
2022/04/27 00:35:27;;;;;;;11.52;6.15;;;;;;;-144.47;55.02;53448.00;5090398;28;20039;-67
2022/04/27 00:37:53;;;;;;;13.52;5.97;;;;;;;-144.47;54.83;53426.16;5076880;28;20059;-68
2022/04/27 00:40:18;;;;;;;13.70;5.97;;;;;;;-144.47;54.91;53455.97;5084316;28;20477;-69
2022/04/27 00:42:44;;;;;;;12.57;6.13;;;;;;;-144.47;55.00;53436.09;5080202;28;20074;-69
2022/04/27 00:45:09;;;;;;;10.98;6.28;;;;;;;-144.47;54.81;53416.22;5090770;28;20034;-70
2022/04/27 00:47:34;;;;;;;12.90;6.05;;;;;;;-144.47;54.83;53420.22;5089335;28;20566;-70
2022/04/27 00:50:02;;;;;;;12.57;6.07;;;;;;;-144.47;54.95;53418.22;5081934;28;20043;-71
2022/04/27 00:52:28;;;;;;;12.40;5.95;;;;;;;-144.47;55.35;53444.03;5079595;28;20028;-67
2022/04/27 00:54:55;;;;;;;11.13;6.45;;;;;;;-144.47;55.75;53408.28;5078640;28;20016;-70
2022/04/27 00:57:22;;;;;;;13.65;6.40;;;;;;;-144.47;55.84;53424.19;5089727;28;20024;-69
2022/04/27 00:59:48;;;;;;;13.73;8.00;;;;;;;-144.47;55.54;53428.16;5080994;28;20032;-68
2022/04/27 01:02:16;;;;;;;18.98;10.93;;;;;;;-144.47;55.60;53402.31;5079831;28;20054;-70
2022/04/27 01:04:42;;;;;;;29.27;13.70;;;;;;;-144.47;55.55;53452.00;5081526;28;20036;-67
2022/04/27 01:07:10;;;;;;;36.72;18.52;;;;;;;-144.47;55.83;53463.91;5086536;28;20503;-67
2022/04/27 01:09:36;;;;;;;29.70;14.90;;;;;;;-144.47;55.87;53452.00;5090230;28;20370;-71
2022/04/27 01:12:02;;;;;;;54.22;22.27;;;;;;;-144.47;55.70;53450.00;5078959;28;20086;-69
2022/04/27 01:14:28;;;;;;;30.23;15.25;;;;;;;-144.47;55.97;53442.06;5081004;28;20032;-69
2022/04/27 01:16:55;;;;;;;27.92;13.90;;;;;;;-144.47;56.02;53434.09;5084316;28;20067;-69
2022/04/27 01:19:26;;;;;;;27.15;12.43;;;;;;;-144.47;56.23;53414.25;5082676;28;20432;-69
2022/04/27 01:21:51;;;;;;;21.70;9.75;;;;;;;-144.47;56.34;53453.97;5082998;28;20032;-70
2022/04/27 01:24:22;;;;;;;22.23;9.68;;;;;;;-144.47;56.29;53434.09;5083670;28;20040;-69
2022/04/27 01:26:50;;;;;;;17.92;9.15;;;;;;;-144.47;56.28;53461.91;5084950;28;20036;-70
2022/04/27 01:29:19;;;;;;;21.95;8.88;;;;;;;-144.47;56.71;53436.09;5080695;28;20069;-69
2022/04/27 01:31:46;;;;;;;18.48;8.52;;;;;;;-144.47;56.97;53450.00;5084332;28;20028;-68
2022/04/27 01:34:13;;;;;;;13.40;7.63;;;;;;;-144.47;57.09;53434.09;5079750;28;20453;-70
2022/04/27 01:36:38;;;;;;;16.77;7.50;;;;;;;-144.47;57.61;53436.09;5079388;28;20020;-70
2022/04/27 01:39:04;;;;;;;15.10;7.57;;;;;;;-144.47;57.16;53461.91;5084877;28;20563;-68
2022/04/27 01:41:30;;;;;;;17.77;8.55;;;;;;;-144.47;57.10;53430.13;5085537;28;20563;-67
2022/04/27 01:43:57;;;;;;;16.92;7.65;;;;;;;-144.47;57.16;53448.00;5084712;28;20064;-69
2022/04/27 01:46:23;;;;;;;14.93;6.75;;;;;;;-144.47;57.01;53444.03;5079122;28;20542;-70
2022/04/27 01:48:50;;;;;;;13.40;6.90;;;;;;;-144.47;56.66;53416.22;5079414;28;20027;-68
2022/04/27 01:51:16;;;;;;;13.52;6.10;;;;;;;-144.47;56.59;53394.38;5078300;28;20028;-70
2022/04/27 01:56:25;;;;;;;11.20;6.40;;;;;;;-144.47;56.34;53406.31;5088293;28;20047;-70
2022/04/27 01:58:51;;;;;;;10.38;6.00;;;;;;;-144.47;56.02;53432.13;5074665;28;20028;-70
2022/04/27 02:01:16;;;;;;;10.90;6.30;;;;;;;-144.47;55.93;53436.09;5088900;28;20550;-69
2022/04/27 02:03:41;;;;;;;12.27;6.68;;;;;;;-144.47;55.76;53400.34;5087373;28;20051;-71
2022/04/27 02:06:07;;;;;;;14.18;5.78;;;;;;;-144.47;55.69;53398.34;5088136;28;20030;-69
2022/04/27 02:08:32;;;;;;;12.05;6.60;;;;;;;-144.47;55.82;53420.22;5089022;28;20043;-69
2022/04/27 02:10:58;;;;;;;10.48;6.18;;;;;;;-144.47;56.05;53420.22;5088878;28;20024;-72
2022/04/27 02:13:27;;;;;;;14.52;6.25;;;;;;;-144.47;55.80;53418.22;5076226;28;20498;-68
2022/04/27 02:15:53;;;;;;;15.63;6.50;;;;;;;-144.47;56.27;53459.94;5077039;28;20016;-68
2022/04/27 02:18:19;;;;;;;13.68;6.45;;;;;;;-144.47;56.56;53416.22;5082550;28;20516;-71
2022/04/27 02:20:46;;;;;;;13.25;5.97;;;;;;;-144.47;56.37;53426.16;5081822;28;20040;-71
2022/04/27 02:23:12;;;;;;;10.73;5.72;;;;;;;-144.47;56.54;53436.09;5082525;28;20028;-68
2022/04/27 02:25:37;;;;;;;10.15;5.97;;;;;;;-144.47;56.76;53412.25;5080448;28;20039;-69
2022/04/27 02:28:02;;;;;;;11.82;6.70;;;;;;;-144.47;57.01;53412.25;5073865;28;20530;-69
2022/04/27 02:30:28;;;;;;;11.27;6.28;;;;;;;-144.47;57.15;53438.09;5080134;28;20040;-70
2022/04/27 02:32:53;;;;;;;18.30;7.78;;;;;;;-144.47;57.36;53424.19;5079300;28;20080;-68
2022/04/27 02:35:19;;;;;;;14.38;6.85;;;;;;;-144.47;57.60;53459.94;5083188;28;20040;-70
2022/04/27 02:37:45;;;;;;;13.77;6.78;;;;;;;-144.47;57.56;53442.06;5086566;28;20449;-69
2022/04/27 02:40:10;;;;;;;13.18;6.85;;;;;;;-144.47;57.71;53402.31;5076402;28;20053;-69
2022/04/27 02:42:36;;;;;;;12.80;6.50;;;;;;;-144.47;57.18;53428.16;5084712;28;20055;-70
2022/04/27 02:45:02;;;;;;;13.18;6.68;;;;;;;-144.47;57.13;53424.19;5078977;28;20032;-68
2022/04/27 02:47:27;;;;;;;14.80;6.40;;;;;;;-144.47;57.02;53424.19;5084126;28;20493;-69
2022/04/27 02:52:37;;;;;;;10.95;6.43;;;;;;;-144.47;57.55;53448.00;5088354;28;20550;-68
2022/04/27 02:55:03;;;;;;;13.18;7.55;;;;;;;-144.47;57.28;53463.91;5078669;28;20031;-69
2022/04/27 02:57:28;;;;;;;13.65;7.45;;;;;;;-144.47;57.40;53444.03;5092080;28;20531;-70
2022/04/27 02:59:53;;;;;;;10.70;6.47;;;;;;;-144.47;57.01;53446.03;5080925;28;20052;-68
2022/04/27 03:02:19;;;;;;;11.68;6.90;;;;;;;-144.47;57.48;53424.19;5084661;28;20020;-70
2022/04/27 03:04:44;;;;;;;13.68;6.90;;;;;;;-144.47;57.39;53440.06;5081743;28;20497;-68
2022/04/27 03:07:10;;;;;;;12.25;6.60;;;;;;;-144.47;57.57;53450.00;5084159;28;20028;-71
2022/04/27 03:09:36;;;;;;;11.23;6.70;;;;;;;-144.47;57.43;53448.00;5085311;28;20459;-71
2022/04/27 03:12:01;;;;;;;11.52;6.80;;;;;;;-144.47;57.14;53459.94;5078590;28;20040;-71
2022/04/27 03:14:28;;;;;;;10.70;6.50;;;;;;;-144.47;56.94;53412.25;5081177;28;20094;-70
2022/04/27 03:16:54;;;;;;;11.77;6.75;;;;;;;-144.47;56.88;53408.28;5082765;28;20032;-69
2022/04/27 03:19:20;;;;;;;11.27;6.32;;;;;;;-144.47;56.84;53440.06;5085315;28;20081;-71
2022/04/27 03:21:46;;;;;;;12.93;6.55;;;;;;;-144.47;56.79;53424.19;5089518;28;20376;-68
2022/04/27 03:24:11;;;;;;;16.65;7.05;;;;;;;-144.47;56.72;53453.97;5086213;28;20404;-70
2022/04/27 03:26:36;;;;;;;10.30;6.78;;;;;;;-144.47;56.38;53404.31;5081119;28;20083;-67
2022/04/27 03:29:03;;;;;;;11.57;6.35;;;;;;;-144.47;56.19;53412.25;5087135;28;20493;-67
2022/04/27 03:31:29;;;;;;;11.88;6.63;;;;;;;-144.47;56.04;53410.28;5062822;28;20025;-70
2022/04/27 03:33:54;;;;;;;12.57;6.80;;;;;;;-144.47;55.95;53438.09;5081004;28;20016;-71
2022/04/27 03:36:19;;;;;;;12.40;7.43;;;;;;;-144.47;56.89;53452.00;5087083;28;20073;-70
2022/04/27 03:38:48;;;;;;;12.95;7.30;;;;;;;-144.47;57.73;53438.09;5082392;28;20028;-70
2022/04/27 03:41:14;;;;;;;11.40;6.63;;;;;;;-144.47;57.37;53422.19;5088436;28;20043;-70
2022/04/27 03:43:40;;;;;;;10.60;6.68;;;;;;;-144.47;58.06;53428.16;5091062;28;20485;-71
2022/04/27 03:46:05;;;;;;;12.18;7.50;;;;;;;-144.47;58.01;53430.13;5088847;28;20250;-69
2022/04/27 03:48:30;;;;;;;10.18;6.90;;;;;;;-144.47;57.61;53422.19;5080279;28;20020;-71
2022/04/27 03:50:56;;;;;;;13.40;7.05;;;;;;;-144.47;57.36;53459.94;5089412;28;20032;-69
2022/04/27 03:53:21;;;;;;;11.10;6.53;;;;;;;-144.47;57.13;53426.16;5083912;28;20586;-70
2022/04/27 03:55:46;;;;;;;11.63;7.30;;;;;;;-144.47;57.26;53422.19;5081083;28;20470;-69
2022/04/27 03:58:12;;;;;;;10.75;6.70;;;;;;;-144.47;56.92;53420.22;5080990;28;20094;-68
2022/04/27 04:00:37;;;;;;;13.40;6.88;;;;;;;-144.47;56.99;53450.00;5090689;28;20020;-70
2022/04/27 04:03:03;;;;;;;10.90;7.03;;;;;;;-144.47;56.96;53440.06;5083847;28;20097;-69
2022/04/27 04:05:29;;;;;;;12.73;6.78;;;;;;;-144.47;56.71;53412.25;5079628;28;20502;-67
2022/04/27 04:07:56;;;;;;;15.80;7.43;;;;;;;-144.47;56.50;53444.03;5083022;28;20119;-69
2022/04/27 04:10:21;;;;;;;11.20;6.85;;;;;;;-144.47;56.56;53424.19;5086372;28;20077;-67
2022/04/27 04:12:47;;;;;;;17.90;7.30;;;;;;;-144.47;56.09;53422.19;5086903;28;20036;-69
2022/04/27 04:15:13;;;;;;;12.65;7.07;;;;;;;-144.47;56.49;53418.22;5086887;28;20063;-69
2022/04/27 04:17:44;;;;;;;11.50;7.47;;;;;;;-144.47;56.05;53418.22;5076090;28;20035;-68
2022/04/27 04:20:11;;;;;;;11.13;6.70;;;;;;;-144.47;56.28;53430.13;5059527;28;20032;-72
2022/04/27 04:22:36;;;;;;;12.65;7.70;;;;;;;-144.47;56.17;53459.94;5090485;28;20028;-72
2022/04/27 04:30:29;;;;;;;16.77;6.82;;;;;;;-144.47;56.02;53453.97;5088602;28;20058;-71
2022/04/27 04:32:54;;;;;;;11.68;7.05;;;;;;;-144.47;55.99;53414.25;5078499;28;20040;-70
2022/04/27 04:35:20;;;;;;;13.52;6.72;;;;;;;-144.47;55.84;53438.09;5077802;28;20036;-72
2022/04/27 04:37:45;;;;;;;12.63;7.20;;;;;;;-144.47;55.62;53469.88;5069881;28;20059;-73
2022/04/27 04:40:11;;;;;;;21.65;7.75;;;;;;;-144.47;55.82;53440.06;5072246;28;20040;-73
2022/04/27 04:42:36;;;;;;;13.48;7.63;;;;;;;-144.47;55.62;53428.16;5073619;28;20056;-69
2022/04/27 04:45:02;;;;;;;15.60;8.02;;;;;;;-144.47;55.87;53414.25;5073057;28;20428;-73
2022/04/27 04:47:27;;;;;;;18.98;7.70;;;;;;;-144.47;55.89;53424.19;5039276;28;20127;-76
2022/04/27 04:49:53;;;;;;;17.08;8.13;;;;;;;-144.47;55.66;53420.22;5073800;28;20040;-72
2022/04/27 04:52:18;;;;;;;13.20;8.00;;;;;;;-144.47;55.23;53438.09;5057144;28;20555;-72
2022/04/27 04:54:43;;;;;;;15.77;7.53;;;;;;;-144.47;55.51;53442.06;5072812;28;20473;-73
2022/04/27 04:57:09;;;;;;;16.45;7.18;;;;;;;-144.47;55.78;53426.16;5057776;28;20047;-73
2022/04/27 04:59:34;;;;;;;18.40;7.80;;;;;;;-144.47;56.22;53455.97;5075720;28;20465;-73
2022/04/27 05:01:59;;;;;;;17.98;6.93;;;;;;;-144.47;56.07;53414.25;5077778;28;20043;-72
2022/04/27 05:04:24;;;;;;;20.75;7.63;;;;;;;-144.47;56.08;53424.19;5089949;28;20039;-70
2022/04/27 05:06:50;;;;;;;12.15;7.18;;;;;;;-144.47;56.11;53412.25;5084386;28;20021;-72
2022/04/27 05:09:15;;;;;;;17.40;7.00;;;;;;;-144.47;57.79;53438.09;5070090;28;20045;-72
2022/04/27 05:11:40;;;;;;;12.50;6.93;;;;;;;-144.47;56.93;53420.22;5073920;28;20418;-73
2022/04/27 05:14:06;;;;;;;13.90;7.10;;;;;;;-144.47;55.35;53420.22;5083117;28;20039;-74
2022/04/27 05:16:33;;;;;;;20.63;6.97;;;;;;;-144.47;55.24;53396.38;5073637;28;20490;-72
2022/04/27 05:18:58;;;;;;;11.93;7.35;;;;;;;-144.47;54.69;53440.06;5089002;28;20137;-73
2022/04/27 05:21:24;;;;;;;12.73;6.80;;;;;;;-144.47;55.01;53438.09;5073742;28;20123;-72
2022/04/27 05:23:49;;;;;;;16.15;7.28;;;;;;;-144.47;55.38;53434.09;5080207;28;20112;-71
2022/04/27 05:26:16;;;;;;;15.00;6.43;;;;;;;-144.47;54.80;53424.19;5072834;28;20501;-73
2022/04/27 05:34:09;;;;;;;12.77;6.78;;;;;;;-144.47;54.97;53396.38;5080096;28;20073;-69
2022/04/27 05:36:35;;;;;;;14.80;7.40;;;;;;;-144.47;54.45;53396.38;5084650;28;20020;-72
2022/04/27 05:39:00;;;;;;;15.13;6.85;;;;;;;-144.47;54.38;53416.22;5092320;22;20135;-66
2022/04/27 05:41:25;;;;;;;12.73;6.85;;;;;;;-144.47;54.23;53406.31;5067778;28;20036;-68
2022/04/27 05:43:51;;;;;;;16.42;7.20;;;;;;;-144.47;54.51;53430.13;5069309;28;20540;-67
2022/04/27 05:46:16;;;;;;;20.55;7.18;;;;;;;-144.47;54.54;53404.31;5066594;28;20496;-67
2022/04/27 05:48:41;;;;;;;12.13;6.32;;;;;;;-144.47;54.05;53424.19;5060789;28;20033;-67
2022/04/27 05:51:07;;;;;;;13.82;6.60;;;;;;;-144.47;54.14;53410.28;5049076;28;20043;-66
2022/04/27 05:53:32;;;;;;;13.77;6.45;;;;;;;-144.47;54.02;53386.44;5048994;28;20036;-66
2022/04/27 05:55:57;;;;;;;22.02;8.70;;;;;;;-144.47;54.07;53414.25;5048641;28;20076;-66
2022/04/27 05:58:22;;;;;;;9.48;6.03;;;;;;;-144.47;53.56;53432.13;5048328;28;20037;-67
2022/04/27 06:00:49;;;;;;;15.90;6.80;;;;;;;-144.47;53.43;53424.19;5048355;28;20041;-65
2022/04/27 06:03:15;;;;;;;19.35;6.72;;;;;;;-144.47;53.48;53406.31;5047962;28;20064;-67
2022/04/27 06:05:40;;;;;;;17.38;6.60;;;;;;;-144.47;53.38;53408.28;5045770;28;20083;-67
2022/04/27 06:08:06;;;;;;;12.02;6.57;;;;;;;-144.47;53.49;53448.00;5044808;28;20123;-67
2022/04/27 06:10:32;;;;;;;14.07;6.72;;;;;;;-144.47;53.61;53424.19;5048491;28;20037;-67
2022/04/27 06:12:57;;;;;;;11.40;6.68;;;;;;;-144.47;53.84;53384.44;5028626;28;20039;-67
2022/04/27 06:15:23;;;;;;;11.57;5.97;;;;;;;-144.47;53.46;53400.34;5048596;28;20048;-67
2022/04/27 06:17:48;;;;;;;13.48;6.10;;;;;;;-144.47;53.48;53400.34;5048095;28;20403;-67
2022/04/27 06:20:13;;;;;;;11.05;6.25;;;;;;;-144.47;53.33;53420.22;5048359;28;20187;-67
2022/04/27 06:22:38;;;;;;;13.40;6.40;;;;;;;-144.47;53.11;53438.09;5047667;28;20430;-66
2022/04/27 06:25:04;;;;;;;13.82;6.07;;;;;;;-144.47;52.87;53422.19;5030244;28;20029;-68
2022/04/27 06:27:30;;;;;;;14.07;6.20;;;;;;;-144.47;52.09;53416.22;5048827;28;20041;-68
2022/04/27 06:29:55;;;;;;;12.48;7.10;;;;;;;-144.47;52.17;53414.25;5047257;28;20068;-67
2022/04/27 06:32:20;;;;;;;12.82;6.35;;;;;;;-144.47;51.97;53410.28;5048478;28;20527;-68
2022/04/27 06:34:46;;;;;;;11.13;6.57;;;;;;;-144.47;51.47;53410.28;5045620;28;20060;-67
2022/04/27 06:37:11;;;;;;;10.65;6.57;;;;;;;-144.47;51.36;53416.22;5044344;28;20502;-66
2022/04/27 06:39:38;;;;;;;13.00;6.60;;;;;;;-144.47;51.39;53426.16;5046069;28;20025;-67
2022/04/27 06:42:04;;;;;;;13.60;6.60;;;;;;;-144.47;51.08;53398.34;5047552;28;20059;-68
2022/04/27 06:44:29;;;;;;;13.82;6.20;;;;;;;-144.47;50.94;53400.34;5048694;28;20131;-67
2022/04/27 06:46:55;;;;;;;11.07;6.55;;;;;;;-144.47;50.89;53402.31;5047244;28;20165;-67
2022/04/27 06:49:20;;;;;;;12.63;6.43;;;;;;;-144.47;51.15;53422.19;5048276;28;20402;-67
2022/04/27 06:51:45;;;;;;;20.58;6.22;;;;;;;-144.47;51.44;53376.50;5048909;28;20429;-66
2022/04/27 06:54:11;;;;;;;12.45;6.78;;;;;;;-144.47;51.53;53392.41;5047840;28;20037;-69
2022/04/27 06:56:36;;;;;;;12.95;6.28;;;;;;;-144.47;51.05;53396.38;5049206;28;20044;-66
2022/04/27 06:59:01;;;;;;;12.02;6.65;;;;;;;-144.47;50.82;53410.28;5048906;28;20056;-67
2022/04/27 07:01:27;;;;;;;13.30;6.93;;;;;;;-144.47;50.54;53378.50;5048571;28;20033;-66
2022/04/27 07:03:55;;;;;;;9.77;6.13;;;;;;;-144.47;50.72;53392.41;5031138;28;20056;-68
2022/04/27 07:06:21;;;;;;;12.98;6.72;;;;;;;-144.47;51.29;53398.34;5048552;28;20033;-67
2022/04/27 07:08:47;;;;;;;15.07;6.47;;;;;;;-144.47;51.54;53384.44;5048618;28;20112;-66
2022/04/27 07:11:12;;;;;;;11.68;6.35;;;;;;;-144.47;51.22;53424.19;5048693;28;20117;-68
2022/04/27 07:13:37;;;;;;;13.45;6.22;;;;;;;-144.47;51.16;53354.66;5054168;28;20032;-66
2022/04/27 07:16:04;;;;;;;13.38;7.68;;;;;;;-144.47;50.99;53418.22;5035054;28;20552;-67
2022/04/27 07:18:30;;;;;;;12.68;6.47;;;;;;;-144.47;50.65;53384.44;5047635;28;20530;-68
2022/04/27 07:20:56;;;;;;;13.05;6.97;;;;;;;-144.47;50.70;53392.41;5035613;28;20037;-66
2022/04/27 07:23:22;;;;;;;15.85;6.90;;;;;;;-144.47;49.71;53348.69;5047559;28;20127;-67
2022/04/27 07:25:47;;;;;;;13.13;6.18;;;;;;;-144.47;49.78;53392.41;5048256;28;20199;-67
2022/04/27 07:28:12;;;;;;;12.77;6.30;;;;;;;-144.47;49.36;53362.59;5034601;28;20108;-68
2022/04/27 07:30:37;;;;;;;10.20;5.93;;;;;;;-144.47;48.91;53362.59;5048209;28;20039;-67
2022/04/27 07:33:03;;;;;;;12.43;7.22;;;;;;;-144.47;47.84;53348.69;5039468;28;20110;-67
2022/04/27 07:35:29;;;;;;;14.68;7.07;;;;;;;-144.47;47.73;53370.53;5048170;28;20041;-68
2022/04/27 07:37:54;;;;;;;15.05;6.50;;;;;;;-144.47;47.65;53362.59;5047938;28;20025;-67
2022/04/27 07:40:19;;;;;;;11.52;6.00;;;;;;;-144.47;46.91;53380.47;5048020;28;20028;-68
2022/04/27 07:42:45;;;;;;;13.77;6.35;;;;;;;-144.47;46.42;53366.56;5050771;28;20025;-66
2022/04/27 07:45:10;;;;;;;12.13;6.05;;;;;;;-144.47;46.23;53350.69;5051575;28;20107;-66
2022/04/27 07:47:40;;;;;;;14.40;6.78;;;;;;;-144.47;45.49;53352.66;5048846;28;20033;-68
2022/04/27 07:50:07;;;;;;;17.40;7.47;;;;;;;-144.47;44.76;53392.41;5050908;28;20029;-66
2022/04/27 07:52:33;;;;;;;14.45;6.35;;;;;;;-144.47;44.35;53380.47;5032858;28;20117;-67
2022/04/27 07:54:58;;;;;;;11.90;5.90;;;;;;;-144.47;44.43;53382.47;5051456;28;20108;-68
2022/04/27 07:57:27;;;;;;;13.00;6.35;;;;;;;-144.47;44.29;53358.63;5050856;28;20453;-66
2022/04/27 07:59:52;;;;;;;;;;;;;;;-144.47;44.21;53350.69;5051955;28;20029;-68
2022/04/27 08:02:18;;;;;;;11.10;6.17;;;;;;;-144.47;43.70;53332.81;5050360;28;19927;-67
2022/04/27 08:04:43;;;;;;;14.88;6.55;;;;;;;-144.47;44.59;53348.69;5050022;28;20331;-68
2022/04/27 08:07:08;;;;;;;9.50;5.95;;;;;;;-144.47;45.13;53342.72;5050218;28;20099;-68
2022/04/27 08:09:33;;;;;;;13.27;6.18;;;;;;;-144.47;44.00;53322.88;5051201;28;20456;-66
2022/04/27 08:12:00;;;;;;;16.52;7.57;;;;;;;-144.47;44.26;53338.75;5050482;28;20553;-67
2022/04/27 08:14:25;;;;;;;11.43;6.10;;;;;;;-144.47;43.56;53352.66;5053607;28;20068;-67
2022/04/27 08:16:51;;;;;;;12.15;6.32;;;;;;;-144.47;43.51;53348.69;5050016;28;20080;-69
2022/04/27 08:19:17;;;;;;;13.27;6.00;;;;;;;-144.47;43.48;53354.66;5050525;28;20063;-69
2022/04/27 08:21:43;;;;;;;18.75;6.93;;;;;;;-144.47;43.99;53340.75;5050425;28;20045;-68
2022/04/27 08:24:11;;;;;;;12.20;6.88;;;;;;;-144.47;44.21;53350.69;5016076;28;20571;-67
2022/04/27 08:26:36;;;;;;;19.20;6.22;;;;;;;-144.47;44.66;53376.50;5050165;28;20033;-67
2022/04/27 08:29:01;;;;;;;12.55;6.63;;;;;;;-144.47;45.08;53326.84;5050391;28;20037;-68
2022/04/27 08:31:27;;;;;;;13.73;6.18;;;;;;;-144.47;44.05;53344.72;5049968;28;20025;-67
2022/04/27 08:33:52;;;;;;;17.25;7.70;;;;;;;-144.47;44.15;53342.72;5044052;28;20066;-67
2022/04/27 08:36:17;;;;;;;14.57;6.97;;;;;;;-144.47;44.56;53326.84;5050012;28;20037;-69
2022/04/27 08:38:43;;;;;;;15.35;6.18;;;;;;;-144.47;43.82;53316.91;5050088;28;20090;-68
2022/04/27 08:41:08;;;;;;;21.40;6.63;;;;;;;-144.47;44.01;53320.88;5049475;28;20037;-67
2022/04/27 08:43:33;;;;;;;18.90;6.53;;;;;;;-144.47;43.14;53316.91;5050007;28;20025;-67
2022/04/27 08:46:03;;;;;;;11.88;6.35;;;;;;;-144.47;42.79;53358.63;5047987;28;20075;-68
2022/04/27 08:48:28;;;;;;;12.32;6.15;;;;;;;-144.47;42.06;53346.72;5049663;28;20059;-67
2022/04/27 08:50:54;;;;;;;10.05;5.25;;;;;;;-144.47;41.17;53376.50;5049383;28;20033;-67
2022/04/27 08:53:20;;;;;;;11.95;6.00;;;;;;;-144.47;41.43;53332.81;5028185;28;20335;-67
2022/04/27 08:55:46;;;;;;;12.48;6.30;;;;;;;-144.47;41.70;53356.63;5047967;28;20127;-67
2022/04/27 08:58:12;;;;;;;9.60;5.55;;;;;;;-144.47;41.97;53338.75;5049583;28;20163;-67
2022/04/27 09:00:38;;;;;;;11.38;6.22;;;;;;;-144.47;42.89;53338.75;5050038;28;20037;-69
2022/04/27 09:03:32;;;;;;;11.25;6.78;;;;;;;-144.47;43.17;53330.81;5050077;28;20029;-67
2022/04/27 09:05:59;;;;;;;12.15;6.03;;;;;;;-144.47;43.49;53334.78;5050026;28;20486;-66
2022/04/27 09:08:48;;;;;;;16.17;6.43;;;;;;;-144.47;40.74;53352.66;5049873;28;20041;-68
2022/04/27 09:11:22;;;;;;;11.02;5.60;;;;;;;-144.47;41.38;53338.75;5049118;28;20514;-67
2022/04/27 09:13:50;;;;;;;12.10;5.22;;;;;;;-144.47;40.81;53330.81;5052383;28;20457;-69
2022/04/27 09:16:18;;;;;;;9.55;5.32;;;;;;;-144.47;39.68;53312.94;5049983;28;20029;-67
2022/04/27 09:22:02;;;;;;;12.00;5.50;;;;;;;-144.47;40.01;53338.75;5049601;28;20039;-68
2022/04/27 09:24:30;;;;;;;13.02;5.40;;;;;;;-144.47;38.87;53316.91;5046771;28;20087;-67
2022/04/27 09:26:58;;;;;;;10.82;5.18;;;;;;;-144.47;39.57;53326.84;5049465;28;20048;-68
2022/04/27 09:29:24;;;;;;;;;;;;;;;-144.47;39.55;53332.81;5050063;28;20037;-68
2022/04/27 09:31:57;;;;;;;13.05;5.68;;;;;;;-144.47;38.92;53324.84;5049258;28;19935;-65
2022/04/27 09:34:29;;;;;;;10.63;5.22;;;;;;;-144.47;39.14;53295.06;5045550;28;20020;-66
2022/04/27 09:37:02;;;;;;;16.83;5.30;;;;;;;-144.47;39.32;53306.97;5049992;28;20029;-68
2022/04/27 09:39:28;;;;;;;9.48;4.93;;;;;;;-144.47;38.99;53301.03;5049164;28;20492;-68
2022/04/27 09:42:04;;;;;;;13.70;5.25;;;;;;;-144.47;38.27;53297.03;5048872;28;20511;-68
2022/04/27 09:44:31;;;;;;;12.90;5.38;;;;;;;-144.47;38.88;53297.03;5049451;28;20040;-68
2022/04/27 09:47:03;;;;;;;9.48;5.18;;;;;;;-144.47;38.78;53336.78;5041501;28;20057;-67
2022/04/27 09:49:31;;;;;;;10.25;4.90;;;;;;;-144.47;38.29;53360.63;5049673;28;20112;-68
2022/04/27 09:51:58;;;;;;;14.38;5.55;;;;;;;-144.47;37.60;53324.84;5041705;28;20025;-67
2022/04/27 09:54:25;;;;;;;12.88;4.90;;;;;;;-144.47;38.14;53328.81;5048909;28;20078;-69
2022/04/27 09:56:56;;;;;;;11.02;5.15;;;;;;;-144.47;38.10;53318.91;5048872;28;20047;-68
2022/04/27 09:59:27;;;;;;;11.05;5.70;;;;;;;-144.47;38.13;53303.00;5048633;28;20044;-68
2022/04/27 10:02:05;;;;;;;15.63;5.78;;;;;;;-144.47;37.68;53279.16;5048860;28;20036;-69
2022/04/27 10:04:30;;;;;;;10.27;5.22;;;;;;;-144.47;37.12;53322.88;5044171;28;20483;-67
2022/04/27 10:07:02;;;;;;;10.48;5.20;;;;;;;-144.47;37.66;53301.03;5049215;28;20020;-69
2022/04/27 10:09:28;;;;;;;11.55;5.45;;;;;;;-144.47;37.80;53320.88;5044946;28;20082;-68
2022/04/27 10:11:58;;;;;;;10.30;5.40;;;;;;;-144.47;37.75;53297.03;5048242;28;20116;-69
2022/04/27 10:14:27;;;;;;;12.63;5.32;;;;;;;-144.47;37.72;53251.34;5052014;28;20037;-71
2022/04/27 10:16:54;;;;;;;8.43;5.35;;;;;;;-144.47;37.70;53295.06;5047370;28;20041;-69
2022/04/27 10:19:20;;;;;;;11.50;5.22;;;;;;;-144.47;37.71;53259.31;5048710;28;20031;-68
2022/04/27 10:22:07;;;;;;;;;;;;;;;;;;;;;
2022/04/27 10:24:34;;;;;;;7.95;4.68;;;;;;;-144.47;36.86;53273.22;5048535;28;20028;-68
2022/04/27 10:27:17;;;;;;;11.05;5.18;;;;;;;-144.47;36.43;53293.06;5046946;28;20124;-69
2022/04/27 10:29:50;;;;;;;10.23;4.70;;;;;;;-144.47;36.35;53301.03;5048111;28;20044;-68
2022/04/27 10:32:50;;;;;;;8.75;4.57;;;;;;;-144.47;36.53;53281.16;5047951;28;20033;-68
2022/04/27 10:35:19;;;;;;;8.60;5.00;;;;;;;-144.47;36.33;53301.03;5041454;28;20187;-67
2022/04/27 10:37:58;;;;;;;10.15;4.90;;;;;;;-144.47;35.88;53271.22;5047431;28;20044;-68
2022/04/27 10:40:31;;;;;;;8.23;4.45;;;;;;;-144.47;35.76;53277.19;5043743;28;20110;-69
2022/04/27 10:43:02;;;;;;;11.13;4.55;;;;;;;-144.47;35.57;53287.13;5045185;28;20063;-68
2022/04/27 10:45:28;;;;;;;9.32;4.60;;;;;;;-144.47;35.49;53334.78;5048320;28;20048;-69
2022/04/27 10:47:54;;;;;;;8.57;4.40;;;;;;;-144.47;35.44;53301.03;5045850;28;20037;-68
2022/04/27 10:50:23;;;;;;;10.57;4.85;;;;;;;-144.47;34.58;53259.31;5048153;28;20713;-69
2022/04/27 10:52:55;;;;;;;11.23;5.55;;;;;;;-144.47;35.14;53261.28;5047226;28;20044;-70
2022/04/27 10:55:35;;;;;;;8.75;4.72;;;;;;;-144.47;34.88;53281.16;5042922;28;20028;-69
2022/04/27 10:58:17;;;;;;;8.48;4.30;;;;;;;-144.47;34.85;53299.03;5040429;28;20547;-69
2022/04/27 11:00:58;;;;;;;7.18;3.97;;;;;;;-144.47;34.74;53271.22;5048039;28;20044;-69
2022/04/27 11:03:25;;;;;;;11.00;4.03;;;;;;;-144.47;34.27;53318.91;5048027;28;20561;-68
2022/04/27 11:05:52;;;;;;;9.52;4.43;;;;;;;-144.47;34.39;53249.38;5048514;28;20056;-68
2022/04/27 11:08:34;;;;;;;9.13;4.90;;;;;;;-144.47;34.34;53322.88;5048492;28;20029;-68
2022/04/27 11:11:09;;;;;;;8.05;4.30;;;;;;;-144.47;33.92;53303.00;5048322;28;20036;-68
2022/04/27 11:13:36;;;;;;;10.48;4.38;;;;;;;-144.47;34.09;53289.09;5050825;28;20036;-69
2022/04/27 11:16:12;;;;;;;8.90;3.97;;;;;;;-144.47;34.02;53271.22;5049416;28;20031;-68
2022/04/27 11:18:55;;;;;;;9.18;3.90;;;;;;;-144.47;33.84;53291.09;5051782;28;20045;-69
2022/04/27 11:21:24;;;;;;;8.35;4.40;;;;;;;-144.47;33.42;53249.38;5051940;28;20040;-67
2022/04/27 11:23:49;;;;;;;9.02;3.95;;;;;;;-144.47;33.31;53257.31;5051841;28;20064;-68
2022/04/27 11:26:15;;;;;;;12.05;3.80;;;;;;;-144.47;33.47;53301.03;5051727;28;20544;-69
2022/04/27 11:28:44;;;;;;;11.23;4.43;;;;;;;-144.47;33.39;53289.09;5051733;28;20043;-66
2022/04/27 11:31:11;;;;;;;7.28;3.72;;;;;;;-144.47;32.78;53289.09;5051809;28;20039;-68